Time;durP1;ratioP1;P1;durP2;ratioP2;P2;SDS_P1;SDS_P2;PMS_P1;PMS_P2;Temp;Humidity;BMP_temperature;BMP_pressure;BME280_temperature;BME280_humidity;BME280_pressure;Samples;Min_cycle;Max_cycle;Signal;HPM_P1;HPM_P2
2022/03/17 00:00:15;;;;;;;5.68;3.13;;;;;;;18.27;17.43;101639.72;5097473;28;20093;-75
2022/03/17 00:02:41;;;;;;;5.07;3.20;;;;;;;18.28;17.37;101630.69;5109658;28;20016;-72
2022/03/17 00:05:09;;;;;;;5.00;3.55;;;;;;;18.33;17.53;101634.81;5109506;28;20016;-74
2022/03/17 00:07:36;;;;;;;3.97;3.40;;;;;;;18.34;17.52;101632.03;5109255;28;20073;-73
2022/03/17 00:10:16;;;;;;;6.22;3.90;;;;;;;18.38;17.55;101632.66;5108768;28;20016;-74
2022/03/17 00:12:47;;;;;;;8.23;3.35;;;;;;;18.41;17.40;101629.72;5109470;28;20047;-73
2022/03/17 00:15:13;;;;;;;5.07;3.33;;;;;;;18.43;17.23;101639.34;5109155;28;20057;-73
2022/03/17 00:17:40;;;;;;;4.88;3.42;;;;;;;18.45;17.34;101632.03;5109344;28;20028;-73
2022/03/17 00:20:10;;;;;;;9.32;3.67;;;;;;;18.48;17.16;101630.09;5109426;28;20094;-74
2022/03/17 00:22:36;;;;;;;5.70;4.22;;;;;;;18.49;17.14;101635.31;5109328;28;20016;-74
2022/03/17 00:25:05;;;;;;;6.80;4.25;;;;;;;18.51;17.39;101636.06;5109262;28;20107;-76
2022/03/17 00:27:31;;;;;;;6.90;4.10;;;;;;;18.53;17.39;101639.47;5109206;28;20091;-74
2022/03/17 00:29:57;;;;;;;6.25;3.10;;;;;;;18.57;17.46;101632.03;5109175;28;20027;-74
2022/03/17 00:32:23;;;;;;;5.78;3.65;;;;;;;18.59;17.34;101636.31;5105690;28;20028;-74
2022/03/17 00:37:33;;;;;;;6.13;3.85;;;;;;;18.58;17.11;101623.03;5088798;28;20054;-75
2022/03/17 00:39:59;;;;;;;6.38;4.15;;;;;;;18.63;17.18;101638.75;5102049;28;20244;-74
2022/03/17 00:42:26;;;;;;;8.38;4.50;;;;;;;18.61;17.13;101636.19;5073644;28;20229;-75
2022/03/17 00:44:53;;;;;;;8.43;3.72;;;;;;;17.93;17.90;101642.28;5088704;28;20048;-71
2022/03/17 00:47:19;;;;;;;8.20;4.25;;;;;;;16.63;18.94;101641.88;5088584;28;20013;-69
2022/03/17 00:49:44;;;;;;;13.80;5.20;;;;;;;15.56;19.69;101648.28;5099225;28;20266;-70
2022/03/17 00:52:11;;;;;;;6.20;4.30;;;;;;;14.67;20.29;101652.13;5108695;28;20240;-71
2022/03/17 00:54:39;;;;;;;5.57;4.07;;;;;;;14.15;20.60;101662.38;5109100;28;20016;-71
2022/03/17 00:57:05;;;;;;;10.95;5.25;;;;;;;13.62;20.80;101651.28;5108942;28;20079;-69
2022/03/17 00:59:31;;;;;;;7.63;5.35;;;;;;;13.01;21.61;101667.91;5108654;28;20130;-72
2022/03/17 01:01:56;;;;;;;9.30;4.78;;;;;;;12.65;21.79;101658.34;5108615;28;20028;-70
2022/03/17 01:04:22;;;;;;;9.93;4.68;;;;;;;12.39;21.89;101665.91;5108580;28;20016;-68
2022/03/17 01:06:47;;;;;;;10.00;5.00;;;;;;;12.17;22.35;101674.94;5107446;28;20055;-71
2022/03/17 01:09:13;;;;;;;9.32;4.90;;;;;;;11.98;22.39;101672.38;5095364;28;20020;-71
2022/03/17 01:11:38;;;;;;;7.88;5.05;;;;;;;11.81;21.86;101678.50;5088089;28;20260;-71
2022/03/17 01:14:04;;;;;;;6.72;4.00;;;;;;;11.57;22.18;101677.91;5088129;28;20020;-70
2022/03/17 01:16:29;;;;;;;9.65;5.15;;;;;;;11.42;22.42;101664.47;5094272;28;20022;-69
2022/03/17 01:18:55;;;;;;;9.82;5.00;;;;;;;11.40;22.94;101674.28;5108093;28;20023;-70
2022/03/17 01:21:21;;;;;;;7.68;4.60;;;;;;;11.44;23.00;101677.66;5107517;28;20027;-70
2022/03/17 01:23:46;;;;;;;7.25;4.38;;;;;;;11.44;22.48;101681.16;5108219;28;20023;-71
2022/03/17 01:26:11;;;;;;;11.55;5.15;;;;;;;11.32;22.55;101679.13;5094848;28;20020;-69
2022/03/17 01:28:37;;;;;;;10.18;4.63;;;;;;;11.24;22.17;101668.88;5108000;28;20076;-70
2022/03/17 01:31:03;;;;;;;5.95;3.97;;;;;;;11.51;22.64;101670.25;5107985;28;20061;-70
2022/03/17 01:33:28;;;;;;;7.10;4.15;;;;;;;12.01;21.81;101669.59;5107400;28;20028;-69
2022/03/17 01:35:54;;;;;;;8.23;4.18;;;;;;;12.59;21.35;101674.59;5091475;28;20028;-69
2022/03/17 01:38:19;;;;;;;5.82;3.75;;;;;;;13.06;21.49;101684.44;5098632;28;20016;-69
2022/03/17 01:40:45;;;;;;;9.00;4.15;;;;;;;13.45;20.96;101678.84;5107896;28;20012;-71
2022/03/17 01:43:10;;;;;;;7.00;3.88;;;;;;;13.78;21.20;101673.38;5107421;28;20016;-69
2022/03/17 01:45:36;;;;;;;7.97;4.00;;;;;;;14.04;20.89;101677.16;5107584;28;20019;-68
2022/03/17 01:48:02;;;;;;;11.23;4.95;;;;;;;14.32;20.33;101682.66;5077504;28;20095;-70
2022/03/17 01:50:28;;;;;;;7.97;3.65;;;;;;;14.51;20.30;101679.72;5087459;28;20004;-70
2022/03/17 01:52:54;;;;;;;9.18;4.57;;;;;;;14.66;19.98;101677.94;5098272;28;20027;-68
2022/03/17 01:55:20;;;;;;;7.57;4.35;;;;;;;14.82;19.89;101685.84;5095129;28;20008;-71
2022/03/17 01:57:46;;;;;;;5.85;3.47;;;;;;;14.91;19.99;101685.28;5095723;28;20016;-72
2022/03/17 02:00:17;;;;;;;7.03;4.20;;;;;;;15.05;19.71;101681.75;5095979;28;20007;-71
2022/03/17 02:02:48;;;;;;;9.32;4.65;;;;;;;15.14;19.97;101684.78;5099847;28;20016;-72
2022/03/17 02:05:13;;;;;;;8.57;4.35;;;;;;;15.19;19.93;101675.53;5106405;28;20030;-71
2022/03/17 02:07:45;;;;;;;8.55;4.20;;;;;;;15.28;19.61;101673.22;5106417;28;20019;-72
2022/03/17 02:10:11;;;;;;;6.38;4.05;;;;;;;15.32;19.72;101680.06;5100728;28;20058;-70
2022/03/17 02:15:20;;;;;;;5.63;3.70;;;;;;;15.44;19.42;101689.94;5095327;28;20252;-70
2022/03/17 02:17:47;;;;;;;7.07;4.72;;;;;;;15.50;19.76;101702.91;5098179;28;20016;-71
2022/03/17 02:20:14;;;;;;;6.30;3.75;;;;;;;15.53;19.49;101697.34;5110739;28;20012;-70
2022/03/17 02:22:46;;;;;;;6.43;3.97;;;;;;;15.56;19.62;101697.16;5108254;28;20133;-70
2022/03/17 02:27:58;;;;;;;5.70;3.90;;;;;;;15.61;19.41;101696.00;5099620;28;20028;-71
2022/03/17 02:30:24;;;;;;;8.00;4.68;;;;;;;15.64;19.64;101701.13;5091536;28;20012;-70
2022/03/17 02:32:49;;;;;;;6.70;3.90;;;;;;;15.68;19.55;101699.97;5091356;28;20142;-71
2022/03/17 02:35:19;;;;;;;5.90;3.78;;;;;;;15.68;19.51;101707.97;5091441;28;20289;-70
2022/03/17 02:37:46;;;;;;;5.85;3.88;;;;;;;15.71;19.14;101697.09;5091417;28;20357;-69
2022/03/17 02:40:12;;;;;;;3.90;3.03;;;;;;;15.76;19.72;101704.78;5091453;28;20017;-71
2022/03/17 02:42:38;;;;;;;6.03;3.97;;;;;;;15.75;19.18;101701.28;5097921;28;20012;-72
2022/03/17 02:45:06;;;;;;;6.60;4.07;;;;;;;15.78;19.19;101702.88;5106612;28;20020;-71
2022/03/17 02:47:32;;;;;;;7.05;4.30;;;;;;;15.79;19.25;101713.47;5107388;28;20141;-70
2022/03/17 02:49:58;;;;;;;8.02;3.70;;;;;;;15.80;19.12;101714.31;5106826;28;20015;-71
2022/03/17 02:52:25;;;;;;;5.30;3.90;;;;;;;15.82;19.24;101718.59;5110244;28;20071;-71
2022/03/17 02:54:52;;;;;;;5.40;3.85;;;;;;;15.83;19.09;101725.63;5091134;28;20020;-72
2022/03/17 02:57:18;;;;;;;7.20;4.43;;;;;;;15.85;19.01;101730.94;5091077;28;20040;-71
2022/03/17 02:59:46;;;;;;;7.35;4.22;;;;;;;15.88;19.06;101732.53;5095024;28;20026;-70
2022/03/17 03:02:14;;;;;;;5.18;3.90;;;;;;;15.90;19.35;101733.28;5090841;28;20028;-71
2022/03/17 03:04:40;;;;;;;5.93;4.72;;;;;;;15.93;19.01;101735.75;5072990;28;20016;-72
2022/03/17 03:07:06;;;;;;;6.45;3.67;;;;;;;15.97;18.79;101735.44;5090398;28;20048;-72
2022/03/17 03:09:33;;;;;;;6.05;3.80;;;;;;;15.97;19.05;101738.13;5090379;28;20020;-71
2022/03/17 03:11:59;;;;;;;6.10;4.30;;;;;;;15.97;19.15;101748.78;5090302;28;20019;-71
2022/03/17 03:14:24;;;;;;;7.43;4.63;;;;;;;16.00;19.32;101755.75;5090383;28;20020;-72
2022/03/17 03:16:51;;;;;;;7.45;4.40;;;;;;;15.99;18.78;101752.22;5090232;28;20021;-71
2022/03/17 03:19:16;;;;;;;5.53;4.15;;;;;;;16.02;18.97;101753.81;5090298;28;20268;-73
2022/03/17 03:21:45;;;;;;;7.40;4.32;;;;;;;16.00;19.10;101751.28;5090052;28;20020;-74
2022/03/17 03:24:11;;;;;;;6.75;4.43;;;;;;;16.01;18.84;101754.78;5096938;28;20268;-73
2022/03/17 03:26:37;;;;;;;5.38;3.92;;;;;;;15.99;18.96;101749.56;5109792;28;20054;-73
2022/03/17 03:29:17;;;;;;;7.07;4.07;;;;;;;16.00;19.36;101755.75;5109219;28;20066;-73
2022/03/17 03:31:42;;;;;;;7.68;4.05;;;;;;;16.01;19.36;101757.44;5110337;28;20046;-73
2022/03/17 03:34:08;;;;;;;6.88;3.97;;;;;;;16.03;19.50;101758.22;5109252;28;20032;-73
2022/03/17 03:39:18;;;;;;;7.78;4.25;;;;;;;16.01;19.27;101752.13;5110336;28;20062;-73
2022/03/17 03:41:44;;;;;;;5.50;4.05;;;;;;;16.02;19.42;101764.50;5092195;28;20155;-73
2022/03/17 03:44:14;;;;;;;8.88;4.95;;;;;;;16.05;19.35;101761.66;5110252;28;20012;-73
2022/03/17 03:46:40;;;;;;;7.63;3.92;;;;;;;16.06;19.28;101759.81;5109748;28;20028;-71
2022/03/17 03:49:06;;;;;;;6.88;4.10;;;;;;;16.07;18.90;101769.53;5109767;28;20016;-71
2022/03/17 03:51:31;;;;;;;8.85;5.30;;;;;;;16.08;18.53;101773.91;5109939;28;20069;-71
2022/03/17 03:56:47;;;;;;;8.77;4.50;;;;;;;16.15;18.75;101778.75;5109245;28;20049;-71
2022/03/17 03:59:23;;;;;;;5.97;4.05;;;;;;;16.17;18.86;101781.34;5109491;28;20011;-71
2022/03/17 04:01:51;;;;;;;8.07;5.28;;;;;;;16.19;18.92;101784.75;5109560;28;20038;-72
2022/03/17 04:04:18;;;;;;;6.70;4.22;;;;;;;16.19;18.93;101783.91;5109765;28;20047;-71
2022/03/17 04:07:10;;;;;;;8.75;4.80;;;;;;;16.21;18.95;101787.31;5109669;28;20024;-71
2022/03/17 04:09:41;;;;;;;7.45;4.90;;;;;;;16.26;18.87;101795.88;5098462;28;20150;-71
2022/03/17 04:12:11;;;;;;;6.53;4.60;;;;;;;16.31;18.56;101801.78;5109264;28;20237;-71
2022/03/17 04:14:38;;;;;;;6.43;4.38;;;;;;;16.34;18.79;101801.56;5109582;28;20020;-71
2022/03/17 04:17:04;;;;;;;6.82;4.03;;;;;;;16.40;18.52;101805.66;5109452;28;20140;-71
2022/03/17 04:19:30;;;;;;;6.85;3.50;;;;;;;16.41;18.95;101812.69;5109489;28;20016;-71
2022/03/17 04:21:56;;;;;;;8.48;3.92;;;;;;;16.43;18.62;101818.81;5108966;28;20175;-72
2022/03/17 04:24:22;;;;;;;6.28;3.67;;;;;;;16.46;18.81;101813.25;5104754;28;20024;-72
2022/03/17 04:26:48;;;;;;;5.43;3.72;;;;;;;16.50;18.13;101800.53;5108328;28;20024;-72
2022/03/17 04:29:14;;;;;;;5.78;4.38;;;;;;;16.59;17.96;101802.56;5109179;28;20016;-72
2022/03/17 04:31:42;;;;;;;8.48;3.78;;;;;;;16.69;17.81;101810.81;5108925;28;20016;-74
2022/03/17 04:34:09;;;;;;;5.10;4.00;;;;;;;16.78;17.99;101812.84;5109089;28;20268;-73
2022/03/17 04:36:35;;;;;;;6.95;4.03;;;;;;;16.82;17.86;101814.38;5108768;28;20263;-73
2022/03/17 04:39:03;;;;;;;7.13;4.28;;;;;;;16.90;17.52;101827.22;5108900;28;20073;-72
2022/03/17 04:41:29;;;;;;;6.82;4.18;;;;;;;16.98;17.42;101824.91;5108706;28;20020;-73
2022/03/17 04:43:55;;;;;;;9.43;4.25;;;;;;;17.07;17.65;101831.41;5107984;28;20081;-73
2022/03/17 04:46:21;;;;;;;7.53;4.10;;;;;;;17.13;17.53;101832.81;5090256;28;20020;-73
2022/03/17 04:48:46;;;;;;;7.72;4.13;;;;;;;17.18;17.30;101830.66;5108656;28;20028;-73
2022/03/17 04:51:12;;;;;;;8.02;4.63;;;;;;;17.23;16.96;101836.56;5108805;28;20023;-72
2022/03/17 04:53:37;;;;;;;8.45;4.35;;;;;;;17.27;17.16;101830.03;5108794;28;20020;-72
2022/03/17 04:56:08;;;;;;;8.77;4.53;;;;;;;17.31;17.00;101836.00;5108274;28;20225;-72
2022/03/17 04:58:36;;;;;;;7.35;4.18;;;;;;;17.41;17.12;101838.91;5108710;28;20024;-72
2022/03/17 05:01:03;;;;;;;9.00;4.32;;;;;;;17.47;16.99;101838.44;5108506;28;20035;-72
2022/03/17 05:03:30;;;;;;;7.38;4.15;;;;;;;17.55;16.76;101846.81;5108576;28;20087;-71
2022/03/17 05:05:56;;;;;;;6.65;4.07;;;;;;;17.64;16.73;101846.13;5108397;28;20087;-72
2022/03/17 05:08:22;;;;;;;5.78;4.35;;;;;;;17.68;16.55;101844.06;5108272;28;20027;-72
2022/03/17 05:10:48;;;;;;;8.35;4.32;;;;;;;17.75;16.56;101849.84;5108184;28;20032;-71
2022/03/17 05:13:16;;;;;;;10.82;4.78;;;;;;;17.82;16.50;101851.97;5108483;28;20027;-72
2022/03/17 05:15:42;;;;;;;12.10;4.25;;;;;;;17.83;16.52;101851.00;5108431;28;20043;-72
2022/03/17 05:18:08;;;;;;;6.45;4.38;;;;;;;17.97;16.53;101852.72;5107561;28;20098;-72
2022/03/17 05:20:38;;;;;;;5.63;4.00;;;;;;;18.06;16.40;101856.53;5108205;28;20004;-71
2022/03/17 05:23:05;;;;;;;7.40;3.90;;;;;;;18.15;16.49;101871.09;5107991;28;20079;-71
2022/03/17 05:25:31;;;;;;;7.95;4.40;;;;;;;18.22;16.31;101861.59;5108181;28;20026;-72
2022/03/17 05:27:57;;;;;;;6.18;4.20;;;;;;;18.30;16.27;101866.41;5107716;28;20026;-72
2022/03/17 05:30:23;;;;;;;8.90;4.50;;;;;;;18.33;16.40;101870.66;5108076;28;20020;-71
2022/03/17 05:32:49;;;;;;;8.32;4.18;;;;;;;18.33;16.39;101863.50;5107775;28;20153;-72
2022/03/17 05:35:15;;;;;;;7.93;4.30;;;;;;;18.27;16.61;101867.50;5107934;28;20020;-72
2022/03/17 05:37:41;;;;;;;7.22;3.72;;;;;;;18.25;16.65;101858.72;5107888;28;20083;-71
2022/03/17 05:40:10;;;;;;;6.93;3.78;;;;;;;18.23;16.73;101865.16;5107918;28;20282;-72
2022/03/17 05:42:36;;;;;;;6.95;3.53;;;;;;;18.23;16.67;101863.31;5107872;28;20023;-72
2022/03/17 05:45:03;;;;;;;6.75;3.92;;;;;;;18.25;16.95;101872.09;5107888;28;20036;-72
2022/03/17 05:47:40;;;;;;;8.70;4.20;;;;;;;18.25;16.72;101861.38;5090064;28;20073;-73
2022/03/17 05:50:09;;;;;;;8.10;4.45;;;;;;;18.24;16.62;101862.34;5107796;28;20132;-73
2022/03/17 05:52:36;;;;;;;13.07;4.95;;;;;;;18.26;16.62;101873.81;5106990;28;20261;-73
2022/03/17 05:55:02;;;;;;;7.00;4.32;;;;;;;18.26;16.75;101875.63;5107729;28;20219;-72
2022/03/17 05:57:27;;;;;;;6.60;3.83;;;;;;;18.26;16.70;101872.94;5107668;28;20137;-73
2022/03/17 05:59:53;;;;;;;8.02;3.95;;;;;;;18.28;16.76;101876.38;5107502;28;20034;-72
2022/03/17 06:02:19;;;;;;;7.55;4.68;;;;;;;18.30;16.84;101877.13;5089870;28;20020;-73
2022/03/17 06:04:44;;;;;;;5.30;3.22;;;;;;;18.30;16.94;101880.66;5107670;28;20016;-72
2022/03/17 06:07:10;;;;;;;5.78;3.72;;;;;;;18.28;17.00;101879.06;5107544;28;20015;-72
2022/03/17 06:09:38;;;;;;;7.82;4.10;;;;;;;18.33;16.92;101881.38;5107448;28;20043;-72
2022/03/17 06:12:05;;;;;;;6.28;3.65;;;;;;;18.34;17.09;101885.78;5107503;28;20075;-71
2022/03/17 06:14:32;;;;;;;9.85;3.88;;;;;;;18.33;16.98;101878.72;5107566;28;20205;-72
2022/03/17 06:16:58;;;;;;;5.95;3.50;;;;;;;18.32;16.65;101872.50;5107468;28;20213;-72
2022/03/17 06:19:24;;;;;;;5.65;3.50;;;;;;;18.34;16.78;101881.28;5107497;28;20007;-72
2022/03/17 06:21:50;;;;;;;3.83;2.70;;;;;;;18.36;16.42;101891.88;5107430;28;20016;-70
2022/03/17 06:24:16;;;;;;;8.63;3.28;;;;;;;18.36;16.68;101892.75;5103899;28;20097;-71
2022/03/17 06:26:41;;;;;;;7.97;3.78;;;;;;;18.38;16.58;101896.16;5087146;28;20021;-71
2022/03/17 06:29:07;;;;;;;4.65;2.90;;;;;;;18.38;16.85;101893.47;5087126;28;20023;-70
2022/03/17 06:31:32;;;;;;;10.07;3.33;;;;;;;18.39;16.82;101891.66;5087077;28;20017;-71
2022/03/17 06:33:58;;;;;;;8.10;3.15;;;;;;;18.39;16.70;101905.06;5086976;28;20133;-70
2022/03/17 06:36:23;;;;;;;6.10;2.80;;;;;;;18.38;16.57;101889.94;5086861;28;20012;-70
2022/03/17 06:38:49;;;;;;;4.88;3.22;;;;;;;18.40;16.33;101898.72;5087023;28;20008;-70
2022/03/17 06:41:14;;;;;;;6.32;2.80;;;;;;;18.40;16.57;101901.41;5087017;28;20016;-70
2022/03/17 06:43:40;;;;;;;6.70;2.85;;;;;;;18.41;16.60;101895.94;5086953;28;20016;-70
2022/03/17 06:46:08;;;;;;;6.65;2.78;;;;;;;18.40;16.31;101896.91;5086968;28;20012;-70
2022/03/17 06:48:33;;;;;;;6.50;2.78;;;;;;;18.40;16.27;101909.47;5086955;28;20008;-70
2022/03/17 06:51:00;;;;;;;6.45;2.60;;;;;;;18.38;16.17;101912.22;5107260;28;20213;-70
2022/03/17 06:53:26;;;;;;;6.75;3.10;;;;;;;18.40;16.02;101912.13;5107264;28;20012;-70
2022/03/17 06:55:51;;;;;;;8.90;2.95;;;;;;;18.40;15.97;101906.78;5107223;28;20069;-71
2022/03/17 06:58:16;;;;;;;5.15;2.90;;;;;;;18.42;16.08;101907.53;5107182;28;20008;-71
2022/03/17 07:00:42;;;;;;;10.30;2.70;;;;;;;18.41;16.10;101912.00;5107010;28;20016;-71
2022/03/17 07:03:08;;;;;;;3.55;2.38;;;;;;;18.41;16.27;101905.81;5107326;28;20008;-71
2022/03/17 07:05:33;;;;;;;7.57;3.47;;;;;;;18.41;16.24;101908.50;5111003;28;20229;-71
2022/03/17 07:07:59;;;;;;;3.70;2.40;;;;;;;18.40;16.13;101898.72;5110925;28;20121;-71
2022/03/17 07:10:26;;;;;;;7.90;2.92;;;;;;;18.45;15.87;101909.97;5110898;28;20023;-70
2022/03/17 07:12:52;;;;;;;4.15;2.83;;;;;;;18.46;15.83;101911.66;5110830;28;20020;-71
2022/03/17 07:15:18;;;;;;;10.52;2.60;;;;;;;18.49;16.16;101910.59;5110913;28;20229;-70
2022/03/17 07:17:43;;;;;;;7.88;2.97;;;;;;;18.48;16.05;101909.72;5110683;28;20027;-69
2022/03/17 07:20:09;;;;;;;4.22;2.53;;;;;;;18.52;15.83;101918.41;5110764;28;20004;-70
2022/03/17 07:22:35;;;;;;;8.65;2.85;;;;;;;18.53;16.09;101914.78;5110903;28;20240;-70
2022/03/17 07:25:02;;;;;;;7.43;3.35;;;;;;;18.55;16.03;101921.72;5100807;28;20020;-71
2022/03/17 07:27:29;;;;;;;7.60;2.55;;;;;;;18.59;16.04;101917.84;5090268;28;20033;-71
2022/03/17 07:29:55;;;;;;;5.40;2.90;;;;;;;18.60;15.94;101910.66;5090184;28;20031;-71
2022/03/17 07:32:22;;;;;;;7.90;3.20;;;;;;;18.61;15.93;101915.88;5090009;28;20237;-71
2022/03/17 07:34:49;;;;;;;4.93;2.38;;;;;;;18.63;16.17;101910.41;5072440;28;20142;-70
2022/03/17 07:37:15;;;;;;;5.68;2.67;;;;;;;18.66;16.01;101917.38;5090030;28;20028;-71
2022/03/17 07:39:42;;;;;;;6.60;2.50;;;;;;;18.67;15.90;101919.09;5105448;28;20016;-71
2022/03/17 07:42:08;;;;;;;4.07;2.22;;;;;;;18.65;15.96;101910.28;5110302;28;20012;-71
2022/03/17 07:44:35;;;;;;;7.10;2.65;;;;;;;18.66;15.68;101920.03;5110316;28;20039;-71
2022/03/17 07:47:01;;;;;;;8.95;2.50;;;;;;;18.63;15.60;101921.16;5110191;28;20119;-71
2022/03/17 07:49:26;;;;;;;6.47;2.75;;;;;;;18.62;15.56;101930.16;5110156;28;20035;-71
2022/03/17 07:51:53;;;;;;;5.03;2.20;;;;;;;18.56;15.44;101931.47;5110100;28;20012;-71
2022/03/17 07:54:18;;;;;;;6.20;2.25;;;;;;;18.56;15.51;101930.59;5110374;28;20180;-71
2022/03/17 07:56:44;;;;;;;4.63;2.60;;;;;;;18.56;15.59;101931.47;5109906;28;20019;-71
2022/03/17 07:59:10;;;;;;;5.80;1.92;;;;;;;18.54;15.32;101925.38;5110265;28;20173;-71
2022/03/17 08:01:35;;;;;;;6.40;2.28;;;;;;;18.53;15.53;101929.03;5089550;28;20040;-70
2022/03/17 08:04:01;;;;;;;4.95;2.40;;;;;;;18.54;15.56;101932.53;5089635;28;20126;-71
2022/03/17 08:06:27;;;;;;;2.70;1.90;;;;;;;18.52;15.21;101934.50;5089564;28;20069;-71
2022/03/17 08:08:52;;;;;;;4.40;2.20;;;;;;;18.51;15.63;101930.94;5089481;28;20016;-70
2022/03/17 08:11:18;;;;;;;3.45;1.85;;;;;;;18.52;15.35;101934.50;5089468;28;20016;-71
2022/03/17 08:13:45;;;;;;;4.10;2.08;;;;;;;18.55;15.29;101936.94;5089473;28;20017;-70
2022/03/17 08:16:12;;;;;;;3.58;2.03;;;;;;;18.52;15.11;101951.44;5088789;28;20031;-71
2022/03/17 08:18:38;;;;;;;3.95;1.55;;;;;;;18.51;15.32;101939.00;5089412;28;20013;-71
2022/03/17 08:21:04;;;;;;;5.32;2.25;;;;;;;18.54;15.11;101944.13;5089277;28;20016;-71
2022/03/17 08:23:29;;;;;;;7.07;2.15;;;;;;;18.55;15.05;101936.94;5089573;28;20028;-70
2022/03/17 08:25:55;;;;;;;5.13;2.05;;;;;;;18.56;15.25;101944.00;5089080;28;20008;-71
2022/03/17 08:28:20;;;;;;;5.03;2.42;;;;;;;18.52;15.09;101938.03;5098340;28;20031;-71
2022/03/17 08:30:47;;;;;;;4.55;1.92;;;;;;;18.53;15.25;101946.94;5109199;28;20020;-70
2022/03/17 08:33:14;;;;;;;5.25;2.20;;;;;;;18.53;15.26;101939.75;5109152;28;20053;-71
2022/03/17 08:35:40;;;;;;;4.47;1.83;;;;;;;18.57;15.37;101941.22;5109349;28;20022;-70
2022/03/17 08:38:06;;;;;;;3.65;1.92;;;;;;;18.56;15.63;101942.19;5109184;28;20022;-70
2022/03/17 08:40:32;;;;;;;5.05;2.35;;;;;;;18.58;15.40;101950.13;5109206;28;20039;-70
2022/03/17 08:42:57;;;;;;;6.53;2.60;;;;;;;18.59;15.25;101943.78;5109040;28;20065;-70
2022/03/17 08:50:51;;;;;;;5.13;1.92;;;;;;;18.65;15.60;101947.84;5108894;28;20259;-71
2022/03/17 08:53:16;;;;;;;4.15;2.22;;;;;;;18.65;15.63;101942.47;5108997;28;20016;-70
2022/03/17 08:55:42;;;;;;;8.00;2.33;;;;;;;18.67;15.54;101957.50;5108859;28;20022;-70
2022/03/17 08:58:08;;;;;;;6.15;2.25;;;;;;;18.67;15.41;101952.13;5108808;28;20023;-69
2022/03/17 09:00:35;;;;;;;5.63;2.45;;;;;;;18.68;15.49;101951.13;5108631;28;20023;-70
2022/03/17 09:03:01;;;;;;;5.85;2.28;;;;;;;18.69;15.59;101942.13;5108872;28;20182;-71
2022/03/17 09:05:28;;;;;;;3.33;2.00;;;;;;;18.68;15.75;101950.28;5108707;28;20047;-71
2022/03/17 09:07:54;;;;;;;4.18;2.47;;;;;;;18.69;15.91;101952.00;5108646;28;20121;-70
2022/03/17 09:10:22;;;;;;;5.38;2.25;;;;;;;18.69;15.55;101962.72;5108619;28;20012;-71
2022/03/17 09:12:47;;;;;;;7.53;2.20;;;;;;;18.69;15.61;101960.88;5108515;28;20011;-70
2022/03/17 09:15:14;;;;;;;3.60;1.88;;;;;;;18.70;15.62;101956.41;5108538;28;20083;-70
2022/03/17 09:17:42;;;;;;;4.53;2.28;;;;;;;18.72;15.39;101957.97;5108458;28;20178;-70
2022/03/17 09:20:13;;;;;;;7.30;2.10;;;;;;;18.73;15.68;101965.06;5108437;28;20227;-71
2022/03/17 09:22:40;;;;;;;7.72;2.50;;;;;;;18.73;15.91;101967.75;5107182;28;20039;-73
2022/03/17 09:25:07;;;;;;;5.10;2.00;;;;;;;18.73;17.07;101966.91;5097660;28;20172;-68
2022/03/17 09:27:33;;;;;;;8.32;1.73;;;;;;;18.75;16.90;101960.44;5106850;28;20073;-70
2022/03/17 09:29:58;;;;;;;5.13;2.20;;;;;;;18.76;17.03;101961.28;5106983;28;20023;-70
2022/03/17 09:32:25;;;;;;;3.28;2.00;;;;;;;18.75;17.02;101964.94;5107923;28;20055;-69
2022/03/17 09:34:51;;;;;;;6.53;2.35;;;;;;;18.73;16.70;101967.75;5108473;28;20032;-70
2022/03/17 09:37:17;;;;;;;4.82;1.73;;;;;;;18.73;16.81;101957.00;5108001;28;20020;-70
2022/03/17 09:39:46;;;;;;;5.38;2.83;;;;;;;18.74;16.79;101963.25;5108064;28;20016;-71
2022/03/17 09:42:18;;;;;;;3.13;1.85;;;;;;;18.74;17.02;101952.53;5107829;28;20141;-69
2022/03/17 09:44:47;;;;;;;3.75;1.90;;;;;;;18.74;17.05;101952.53;5104290;28;20261;-70
2022/03/17 09:47:20;;;;;;;3.85;1.60;;;;;;;18.76;17.21;101947.88;5107347;28;20050;-70
2022/03/17 09:49:47;;;;;;;6.32;2.22;;;;;;;18.80;17.02;101952.03;5106418;28;20095;-68
2022/03/17 09:52:15;;;;;;;5.10;2.35;;;;;;;18.83;16.87;101951.81;5106804;28;20020;-68
2022/03/17 09:54:41;;;;;;;4.03;2.15;;;;;;;18.86;16.77;101948.03;5107741;28;20016;-71
2022/03/17 09:57:07;;;;;;;5.68;2.40;;;;;;;18.85;16.98;101939.16;5107846;28;20016;-71
2022/03/17 09:59:33;;;;;;;6.53;2.33;;;;;;;18.87;16.82;101944.38;5107694;28;20040;-72
2022/03/17 10:02:00;;;;;;;3.53;2.10;;;;;;;18.85;16.84;101940.97;5107767;28;20156;-72
2022/03/17 10:04:33;;;;;;;7.13;2.53;;;;;;;18.87;16.78;101945.25;5107838;28;20111;-69
2022/03/17 10:07:01;;;;;;;4.53;1.70;;;;;;;18.90;16.56;101945.00;5107284;28;20024;-72
2022/03/17 10:09:30;;;;;;;3.95;2.55;;;;;;;18.90;16.60;101936.97;5107314;28;20109;-70
2022/03/17 10:12:00;;;;;;;5.30;2.35;;;;;;;18.94;16.69;101931.38;5106723;28;20070;-70
2022/03/17 10:14:49;;;;;;;6.85;2.30;;;;;;;18.97;16.92;101933.84;5107379;28;20030;-70
2022/03/17 10:17:41;;;;;;;6.85;2.33;;;;;;;18.94;16.90;101931.38;5106901;28;20027;-70
2022/03/17 10:20:22;;;;;;;4.05;1.90;;;;;;;18.94;16.94;101926.00;5099168;28;20031;-67
2022/03/17 10:22:56;;;;;;;3.92;2.10;;;;;;;18.95;17.48;101925.06;5098066;28;20032;-68
2022/03/17 10:25:29;;;;;;;4.85;1.80;;;;;;;18.96;17.71;101937.50;5105528;28;20073;-68
2022/03/17 10:27:56;;;;;;;4.15;1.92;;;;;;;18.95;17.37;101933.09;5107365;28;20031;-68
2022/03/17 10:30:35;;;;;;;5.10;1.95;;;;;;;19.03;17.33;101930.72;5107322;28;20055;-66
2022/03/17 10:33:14;;;;;;;2.40;1.67;;;;;;;19.10;17.20;101929.25;5087025;28;20056;-67
2022/03/17 10:35:45;;;;;;;5.40;1.90;;;;;;;19.15;17.11;101928.88;5087133;28;20118;-68
2022/03/17 10:38:13;;;;;;;3.47;1.65;;;;;;;19.15;17.40;101939.63;5096295;28;20043;-69
2022/03/17 10:40:40;;;;;;;5.53;1.70;;;;;;;18.97;17.70;101926.66;5110736;28;20043;-71
2022/03/17 10:43:24;;;;;;;9.77;2.72;;;;;;;18.51;18.06;101930.94;5111105;28;20129;-72
2022/03/17 10:46:06;;;;;;;3.97;1.73;;;;;;;18.10;18.07;101929.50;5111174;28;20020;-69
2022/03/17 10:48:32;;;;;;;3.92;2.40;;;;;;;17.82;17.87;101932.31;5107377;28;20035;-72
2022/03/17 10:50:57;;;;;;;7.35;1.98;;;;;;;17.56;17.97;101927.94;5109498;28;20087;-68
2022/03/17 10:53:28;;;;;;;5.93;1.60;;;;;;;17.37;17.94;101919.38;5110784;28;20031;-69
2022/03/17 10:56:09;;;;;;;3.43;2.00;;;;;;;17.18;18.34;101922.50;5111088;28;20012;-69
2022/03/17 10:58:43;;;;;;;6.25;1.80;;;;;;;17.02;18.07;101914.63;5111221;28;20053;-70
2022/03/17 11:01:10;;;;;;;5.30;2.17;;;;;;;16.95;18.09;101918.72;5111051;28;20015;-70
2022/03/17 11:03:36;;;;;;;7.20;2.17;;;;;;;16.85;17.97;101917.56;5111180;28;20020;-69
2022/03/17 11:06:06;;;;;;;6.60;2.00;;;;;;;16.77;17.84;101905.59;5110917;28;20038;-70
2022/03/17 11:08:32;;;;;;;4.00;2.28;;;;;;;16.67;18.19;101909.84;5110967;28;20028;-71
2022/03/17 11:10:58;;;;;;;6.57;2.15;;;;;;;16.55;17.77;101900.81;5110794;28;20173;-68
2022/03/17 11:13:24;;;;;;;4.05;2.00;;;;;;;16.52;17.53;101906.38;5110929;28;20030;-70
2022/03/17 11:16:05;;;;;;;7.13;2.13;;;;;;;16.50;18.10;101902.94;5110867;28;20224;-67
2022/03/17 11:18:36;;;;;;;5.65;1.95;;;;;;;16.48;17.66;101907.50;5110909;28;20019;-69
2022/03/17 11:21:16;;;;;;;7.55;2.15;;;;;;;16.45;18.01;101911.25;5110629;28;20016;-67
2022/03/17 11:23:56;;;;;;;2.60;1.80;;;;;;;16.41;17.87;101901.72;5110694;28;20087;-67
2022/03/17 11:26:44;;;;;;;5.03;2.17;;;;;;;16.33;17.70;101904.06;5110504;28;20039;-68
2022/03/17 11:29:13;;;;;;;12.00;2.15;;;;;;;16.27;17.91;101905.31;5110421;28;20024;-68
2022/03/17 11:31:56;;;;;;;4.38;1.92;;;;;;;16.26;17.72;101900.06;5110328;28;20031;-68
2022/03/17 11:34:46;;;;;;;4.60;1.60;;;;;;;16.23;17.62;101902.94;5110337;28;20048;-68
2022/03/17 11:37:17;;;;;;;3.45;1.85;;;;;;;16.21;17.72;101904.84;5110276;28;20028;-68
2022/03/17 11:39:57;;;;;;;4.80;2.17;;;;;;;16.23;17.91;101903.78;5110295;28;20136;-69
2022/03/17 11:42:35;;;;;;;3.20;2.08;;;;;;;16.21;17.73;101897.69;5110417;28;20095;-68
2022/03/17 11:45:13;;;;;;;4.63;1.90;;;;;;;16.20;17.41;101897.78;5110296;28;20024;-69